createdAt,value
2019-03-17T00:01:12.209Z,98762.64
2019-03-17T00:03:40.522Z,98752.48
2019-03-17T00:06:07.932Z,98752.45
2019-03-17T00:08:34.538Z,98751.11
2019-03-17T00:11:00.871Z,98754.19
2019-03-17T00:13:27.598Z,98750.73
2019-03-17T00:15:54.651Z,98751.78
2019-03-17T00:18:21.285Z,98736.20
2019-03-17T00:20:47.906Z,98732.36
2019-03-17T00:23:14.262Z,98732.57
2019-03-17T00:25:41.580Z,98742.48
2019-03-17T00:28:07.882Z,98745.31
2019-03-17T00:30:34.330Z,98747.08
2019-03-17T00:33:00.639Z,98744.27
2019-03-17T00:35:26.993Z,98740.88
2019-03-17T00:37:53.657Z,98738.82
2019-03-17T00:40:21.002Z,98735.87
2019-03-17T00:42:47.318Z,98732.22
2019-03-17T00:45:13.673Z,98727.70
2019-03-17T00:47:40.359Z,98734.44
2019-03-17T00:50:09.380Z,98735.30
2019-03-17T00:52:35.748Z,98739.92
2019-03-17T00:55:04.852Z,98743.86
2019-03-17T00:57:31.492Z,98731.38
2019-03-17T00:59:57.787Z,98730.91
2019-03-17T01:02:26.462Z,98724.09
2019-03-17T01:04:56.433Z,98731.50
2019-03-17T01:07:21.919Z,98720.93
2019-03-17T01:09:48.418Z,98719.15
2019-03-17T01:12:15.207Z,98716.17
2019-03-17T01:14:41.568Z,98708.77
2019-03-17T01:17:07.872Z,98703.66
2019-03-17T01:19:34.229Z,98696.35
2019-03-17T01:22:00.852Z,98696.80
2019-03-17T01:24:27.198Z,98696.50
2019-03-17T01:26:53.901Z,98697.50
2019-03-17T01:29:20.255Z,98695.70
2019-03-17T01:31:46.587Z,98691.25
2019-03-17T01:34:13.210Z,98687.63
2019-03-17T01:36:39.916Z,98678.59
2019-03-17T01:39:06.586Z,98674.55
2019-03-17T01:41:32.916Z,98672.31
2019-03-17T01:44:00.156Z,98665.71
2019-03-17T01:46:26.805Z,98667.05
2019-03-17T01:48:54.477Z,98664.02
2019-03-17T01:51:21.045Z,98648.83
2019-03-17T01:53:47.400Z,98643.61
2019-03-17T01:56:13.904Z,98638.16
2019-03-17T01:58:40.527Z,98634.84
2019-03-17T02:01:07.150Z,98634.40
2019-03-17T02:03:33.919Z,98632.89
2019-03-17T02:06:00.259Z,98631.41
2019-03-17T02:08:26.600Z,98621.60
2019-03-17T02:10:53.150Z,98618.41
2019-03-17T02:13:19.706Z,98616.89
2019-03-17T02:15:46.051Z,98614.31
2019-03-17T02:18:12.713Z,98612.41
2019-03-17T02:20:39.045Z,98601.52
2019-03-17T02:23:05.381Z,98603.03
2019-03-17T02:25:32.004Z,98602.20
2019-03-17T02:27:58.641Z,98597.27
2019-03-17T02:30:24.951Z,98599.13
2019-03-17T02:32:51.305Z,98585.39
2019-03-17T02:35:17.630Z,98587.64
2019-03-17T02:37:43.972Z,98591.31
2019-03-17T02:40:10.316Z,98578.88
2019-03-17T02:42:36.946Z,98584.08
2019-03-17T02:45:07.391Z,98582.90
2019-03-17T02:47:33.720Z,98582.96
2019-03-17T02:50:00.509Z,98582.16
2019-03-17T02:52:26.996Z,98573.89
2019-03-17T02:54:53.361Z,98564.41
2019-03-17T02:57:19.699Z,98566.45
2019-03-17T02:59:46.015Z,98567.85
2019-03-17T03:02:12.355Z,98565.60
2019-03-17T03:04:39.933Z,98567.73
2019-03-17T03:07:06.266Z,98561.70
2019-03-17T03:09:33.605Z,98560.84
2019-03-17T03:12:00.293Z,98556.22
2019-03-17T03:14:26.690Z,98547.94
2019-03-17T03:16:53.059Z,98552.31
2019-03-17T03:19:19.392Z,98540.00
2019-03-17T03:21:46.724Z,98549.74
2019-03-17T03:24:13.379Z,98547.84
2019-03-17T03:26:40.314Z,98540.65
2019-03-17T03:29:06.615Z,98542.95
2019-03-17T03:31:32.955Z,98536.06
2019-03-17T03:33:59.263Z,98534.84
2019-03-17T03:36:25.741Z,98528.69
2019-03-17T03:38:52.036Z,98522.30
2019-03-17T03:41:18.382Z,98528.61
2019-03-17T03:43:44.717Z,98521.47
2019-03-17T03:46:11.143Z,98515.79
2019-03-17T03:48:37.473Z,98508.59
2019-03-17T03:51:03.898Z,98505.73
2019-03-17T03:53:30.234Z,98492.61
2019-03-17T03:55:56.915Z,98493.47
2019-03-17T03:58:23.284Z,98486.23
2019-03-17T04:00:49.592Z,98491.44
2019-03-17T04:03:16.227Z,98481.39
2019-03-17T04:05:42.585Z,98476.53
2019-03-17T04:08:08.927Z,98472.55
2019-03-17T04:10:35.626Z,98473.41
2019-03-17T04:13:01.930Z,98471.39
2019-03-17T04:15:28.590Z,98465.00
2019-03-17T04:17:54.910Z,98456.75
2019-03-17T04:20:21.580Z,98452.02
2019-03-17T04:22:47.931Z,98452.84
2019-03-17T04:25:16.125Z,98448.52
2019-03-17T04:27:42.840Z,98444.80
2019-03-17T04:30:09.482Z,98434.30
2019-03-17T04:32:35.816Z,98431.45
2019-03-17T04:35:05.061Z,98432.40
2019-03-17T04:37:31.382Z,98428.80
2019-03-17T04:39:57.711Z,98429.03
2019-03-17T04:42:24.070Z,98428.63
2019-03-17T04:44:50.388Z,98429.36
2019-03-17T04:47:16.786Z,98415.91
2019-03-17T04:49:43.474Z,98420.42
2019-03-17T04:52:10.319Z,98414.75
2019-03-17T04:54:36.641Z,98410.98
2019-03-17T04:57:03.015Z,98416.05
2019-03-17T04:59:29.320Z,98404.81
2019-03-17T05:01:55.977Z,98401.77
2019-03-17T05:04:22.307Z,98395.99
2019-03-17T05:06:52.905Z,98401.93
2019-03-17T05:09:17.199Z,98401.10
2019-03-17T05:11:43.823Z,98395.42
2019-03-17T05:14:10.529Z,98395.08
2019-03-17T05:16:37.205Z,98394.73
2019-03-17T05:19:03.850Z,98385.89
2019-03-17T05:21:30.233Z,98389.48
2019-03-17T05:23:56.617Z,98383.34
2019-03-17T05:26:23.465Z,98381.23
2019-03-17T05:28:49.896Z,98384.09
2019-03-17T05:31:16.263Z,98371.92
2019-03-17T05:33:42.685Z,98377.67
2019-03-17T05:36:09.313Z,98373.05
2019-03-17T05:38:35.929Z,98367.86
2019-03-17T05:41:02.251Z,98371.59
2019-03-17T05:43:31.156Z,98369.98
2019-03-17T05:45:57.510Z,98371.81
2019-03-17T05:48:24.951Z,98367.76
2019-03-17T05:50:51.679Z,98373.84
2019-03-17T05:53:18.087Z,98363.40
2019-03-17T05:55:44.748Z,98369.98
2019-03-17T05:58:11.403Z,98381.50
2019-03-17T06:00:38.036Z,98379.25
2019-03-17T06:03:04.692Z,98373.56
2019-03-17T06:05:31.431Z,98378.33
2019-03-17T06:07:57.757Z,98371.13
2019-03-17T06:10:24.093Z,98365.67
2019-03-17T06:12:50.462Z,98367.87
2019-03-17T06:15:17.169Z,98356.14
2019-03-17T06:17:43.787Z,98361.34
2019-03-17T06:20:11.631Z,98364.56
2019-03-17T06:22:37.915Z,98363.16
2019-03-17T06:25:07.280Z,98365.58
2019-03-17T06:27:33.588Z,98371.02
2019-03-17T06:30:00.387Z,98358.92
2019-03-17T06:32:27.680Z,98356.57
2019-03-17T06:34:54.418Z,98360.73
2019-03-17T06:37:30.602Z,98345.95
2019-03-17T06:39:50.089Z,98356.39
2019-03-17T06:42:16.714Z,98351.11
2019-03-17T06:44:43.049Z,98341.27
2019-03-17T06:47:09.378Z,98351.08
2019-03-17T06:49:35.813Z,98352.84
2019-03-17T06:52:02.144Z,98357.54
2019-03-17T06:54:28.478Z,98348.95
2019-03-17T06:56:54.847Z,98353.38
2019-03-17T06:59:21.228Z,98346.79
2019-03-17T07:01:47.574Z,98344.67
2019-03-17T07:04:13.932Z,98341.23
2019-03-17T07:06:40.756Z,98342.78
2019-03-17T07:09:07.106Z,98344.70
2019-03-17T07:11:33.408Z,98338.30
2019-03-17T07:13:59.761Z,98331.95
2019-03-17T07:16:26.109Z,98336.95
2019-03-17T07:18:52.734Z,98333.84
2019-03-17T07:21:19.353Z,98337.72
2019-03-17T07:23:45.660Z,98329.52
2019-03-17T07:26:12.343Z,98319.80
2019-03-17T07:28:38.657Z,98320.86
2019-03-17T07:31:05.030Z,98313.91
2019-03-17T07:33:31.586Z,98311.31
2019-03-17T07:35:58.269Z,98308.42
2019-03-17T07:38:24.648Z,98313.56
2019-03-17T07:40:51.345Z,98311.92
2019-03-17T07:43:17.675Z,98326.20
2019-03-17T07:45:44.615Z,98319.98
2019-03-17T07:48:11.645Z,98329.62
2019-03-17T07:50:38.045Z,98325.27
2019-03-17T07:53:04.405Z,98332.08
2019-03-17T07:55:31.208Z,98332.19
2019-03-17T07:57:58.023Z,98332.02
2019-03-17T08:00:31.849Z,98321.09
2019-03-17T08:02:52.697Z,98321.38
2019-03-17T08:05:19.021Z,98311.22
2019-03-17T08:07:45.427Z,98319.33
2019-03-17T08:10:15.602Z,98310.66
2019-03-17T08:12:42.086Z,98316.52
2019-03-17T08:15:11.032Z,98309.86
2019-03-17T08:17:37.421Z,98314.84
2019-03-17T08:20:08.706Z,98318.31
2019-03-17T08:22:35.340Z,98314.56
2019-03-17T08:25:02.193Z,98320.25
2019-03-17T08:27:28.520Z,98320.34
2019-03-17T08:29:55.167Z,98320.02
2019-03-17T08:32:21.799Z,98332.45
2019-03-17T08:34:48.152Z,98303.33
2019-03-17T08:37:14.504Z,98334.59
2019-03-17T08:39:40.852Z,98296.94
2019-03-17T08:42:07.232Z,98315.05
2019-03-17T08:44:33.664Z,98305.80
2019-03-17T08:47:00.433Z,98291.91
2019-03-17T08:49:27.041Z,98314.30
2019-03-17T08:51:53.483Z,98314.44
2019-03-17T08:54:20.120Z,98312.94
2019-03-17T08:56:46.452Z,98315.45
2019-03-17T08:59:12.777Z,98307.47
2019-03-17T09:01:39.418Z,98313.09
2019-03-17T09:04:06.058Z,98336.70
2019-03-17T09:06:32.702Z,98308.42
2019-03-17T09:08:59.047Z,98334.41
2019-03-17T09:11:25.400Z,98341.59
2019-03-17T09:13:52.106Z,98356.00
2019-03-17T09:16:19.483Z,98352.72
2019-03-17T09:18:47.330Z,98340.45
2019-03-17T09:21:13.963Z,98345.04
2019-03-17T09:23:42.614Z,98351.15
2019-03-17T09:26:09.390Z,98364.06
2019-03-17T09:28:35.730Z,98368.23
2019-03-17T09:31:04.790Z,98342.97
2019-03-17T09:33:30.633Z,98364.36
2019-03-17T09:35:56.941Z,98372.43
2019-03-17T09:38:23.255Z,98370.42
2019-03-17T09:40:49.598Z,98372.56
2019-03-17T09:43:16.365Z,98361.54
2019-03-17T09:45:43.136Z,98373.84
2019-03-17T09:48:09.739Z,98347.86
2019-03-17T09:50:36.077Z,98356.61
2019-03-17T09:53:03.858Z,98368.61
2019-03-17T09:55:30.471Z,98359.10
2019-03-17T09:57:57.213Z,98355.86
2019-03-17T10:00:23.569Z,98357.25
2019-03-17T10:02:50.415Z,98360.00
2019-03-17T10:05:16.798Z,98347.73
2019-03-17T10:07:43.141Z,98348.56
2019-03-17T10:10:19.652Z,98339.95
2019-03-17T10:12:46.387Z,98367.47
2019-03-17T10:15:17.843Z,98321.80
2019-03-17T10:17:44.486Z,98337.41
2019-03-17T10:20:17.718Z,98335.03
2019-03-17T10:22:44.462Z,98331.30
2019-03-17T10:25:11.957Z,98344.15
2019-03-17T10:27:38.635Z,98338.89
2019-03-17T10:30:10.585Z,98346.56
2019-03-17T10:32:36.892Z,98351.30
2019-03-17T10:35:04.543Z,98342.92
2019-03-17T10:37:30.915Z,98357.59
2019-03-17T10:39:57.265Z,98356.80
2019-03-17T10:42:23.572Z,98405.94
2019-03-17T10:44:50.262Z,98351.62
2019-03-17T10:47:16.659Z,98388.81
2019-03-17T10:49:43.094Z,98352.94
2019-03-17T10:52:10.027Z,98342.36
2019-03-17T10:54:36.363Z,98332.17
2019-03-17T10:57:02.862Z,98353.73
2019-03-17T10:59:29.236Z,98341.36
2019-03-17T11:01:55.651Z,98345.63
2019-03-17T11:04:22.031Z,98339.23
2019-03-17T11:06:48.691Z,98347.53
2019-03-17T11:09:24.687Z,98333.54
2019-03-17T11:11:43.611Z,98335.61
2019-03-17T11:14:10.244Z,98336.36
2019-03-17T11:16:36.604Z,98350.41
2019-03-17T11:19:02.917Z,98326.16
2019-03-17T11:21:29.253Z,98323.45
2019-03-17T11:23:55.869Z,98353.66
2019-03-17T11:26:22.262Z,98342.78
2019-03-17T11:28:48.637Z,98335.05
2019-03-17T11:31:14.972Z,98335.27
2019-03-17T11:33:41.666Z,98299.27
2019-03-17T11:36:07.976Z,98323.93
2019-03-17T11:38:34.354Z,98336.39
2019-03-17T11:41:00.709Z,98334.92
2019-03-17T11:43:27.367Z,98338.01
2019-03-17T11:45:54.148Z,98339.45
2019-03-17T11:48:21.034Z,98351.83
2019-03-17T11:50:47.367Z,98322.25
2019-03-17T11:53:13.732Z,98347.23
2019-03-17T11:55:40.066Z,98356.27
2019-03-17T11:58:06.418Z,98355.19
2019-03-17T12:00:32.715Z,98365.83
2019-03-17T12:02:59.644Z,98367.77
2019-03-17T12:05:26.267Z,98356.84
2019-03-17T12:07:53.032Z,98359.17
2019-03-17T12:10:23.338Z,98372.21
2019-03-17T12:12:49.752Z,98362.73
2019-03-17T12:15:34.354Z,98374.62
2019-03-17T12:18:00.706Z,98366.44
2019-03-17T12:20:27.312Z,98341.37
2019-03-17T12:22:53.762Z,98369.00
2019-03-17T12:25:20.265Z,98376.00
2019-03-17T12:27:46.603Z,98379.69
2019-03-17T12:30:23.056Z,98374.98
2019-03-17T12:32:51.214Z,98358.37
2019-03-17T12:35:17.639Z,98324.53
2019-03-17T12:37:44.774Z,98331.77
2019-03-17T12:40:11.201Z,98329.88
2019-03-17T12:42:38.789Z,98320.42
2019-03-17T12:45:07.273Z,98346.37
2019-03-17T12:47:37.204Z,98290.64
2019-03-17T12:50:07.107Z,98330.13
2019-03-17T12:52:33.482Z,98317.31
2019-03-17T12:55:00.362Z,98307.38
2019-03-17T12:57:26.755Z,98305.97
2019-03-17T12:59:53.415Z,98316.39
2019-03-17T13:02:19.789Z,98305.02
2019-03-17T13:04:46.557Z,98352.93
2019-03-17T13:07:12.913Z,98318.64
2019-03-17T13:09:39.670Z,98314.50
2019-03-17T13:12:06.124Z,98314.14
2019-03-17T13:14:32.814Z,98307.28
2019-03-17T13:16:59.151Z,98308.87
2019-03-17T13:19:25.778Z,98258.03
2019-03-17T13:21:52.426Z,98310.48
2019-03-17T13:24:18.819Z,98307.16
2019-03-17T13:26:45.524Z,98305.89
2019-03-17T13:29:12.130Z,98295.09
2019-03-17T13:31:38.972Z,98326.03
2019-03-17T13:34:07.763Z,98325.09
2019-03-17T13:36:36.293Z,98320.70
2019-03-17T13:39:05.340Z,98310.49
2019-03-17T13:41:31.671Z,98304.93
2019-03-17T13:43:58.384Z,98320.42
2019-03-17T13:46:27.513Z,98309.59
2019-03-17T13:48:54.152Z,98311.92
2019-03-17T13:51:20.785Z,98308.03
2019-03-17T13:53:47.116Z,98316.20
2019-03-17T13:56:13.760Z,98302.25
2019-03-17T13:58:40.385Z,98314.38
2019-03-17T14:01:07.028Z,98280.84
2019-03-17T14:03:33.356Z,98312.57
2019-03-17T14:06:00.007Z,98298.77
2019-03-17T14:08:26.355Z,98291.61
2019-03-17T14:10:53.075Z,98292.78
2019-03-17T14:13:19.712Z,98298.12
2019-03-17T14:15:46.355Z,98297.79
2019-03-17T14:18:12.678Z,98282.55
2019-03-17T14:20:39.314Z,98288.38
2019-03-17T14:23:05.953Z,98286.23
2019-03-17T14:25:36.197Z,98304.81
2019-03-17T14:28:02.525Z,98289.88
2019-03-17T14:30:29.505Z,98303.38
2019-03-17T14:32:55.807Z,98298.48
2019-03-17T14:35:23.655Z,98296.08
2019-03-17T14:37:49.975Z,98298.62
2019-03-17T14:40:16.746Z,98299.69
2019-03-17T14:42:45.770Z,98310.59
2019-03-17T14:45:14.367Z,98300.18
2019-03-17T14:47:40.936Z,98309.06
2019-03-17T14:50:19.067Z,98295.20
2019-03-17T14:52:45.834Z,98296.53
2019-03-17T14:55:12.690Z,98304.89
2019-03-17T14:57:39.089Z,98300.19
2019-03-17T15:00:16.794Z,98318.59
2019-03-17T15:02:44.027Z,98305.14
2019-03-17T15:05:10.919Z,98309.14
2019-03-17T15:07:37.603Z,98325.86
2019-03-17T15:10:09.703Z,98331.55
2019-03-17T15:12:36.100Z,98364.19
2019-03-17T15:15:17.948Z,98401.81
2019-03-17T15:17:44.517Z,98393.51
2019-03-17T15:20:21.155Z,98418.80
2019-03-17T15:22:47.490Z,98413.50
2019-03-17T15:25:15.070Z,98441.89
2019-03-17T15:27:41.925Z,98423.48
2019-03-17T15:30:16.144Z,98443.85
2019-03-17T15:32:42.486Z,98467.08
2019-03-17T15:35:11.927Z,98512.80
2019-03-17T15:37:38.640Z,98473.79
2019-03-17T15:40:09.693Z,98488.20
2019-03-17T15:42:36.060Z,98506.98
2019-03-17T15:45:06.489Z,98510.56
2019-03-17T15:47:33.488Z,98532.02
2019-03-17T15:49:59.955Z,98543.03
2019-03-17T15:52:26.288Z,98563.48
2019-03-17T15:54:52.636Z,98584.01
2019-03-17T15:57:19.455Z,98605.89
2019-03-17T15:59:48.473Z,98615.19
2019-03-17T16:02:14.343Z,98612.16
2019-03-17T16:04:40.995Z,98639.44
2019-03-17T16:07:07.754Z,98642.84
2019-03-17T16:09:34.350Z,98647.95
2019-03-17T16:12:01.203Z,98679.19
2019-03-17T16:14:27.531Z,98680.25
2019-03-17T16:16:53.902Z,98695.58
2019-03-17T16:19:20.310Z,98690.55
2019-03-17T16:21:47.048Z,98690.05
2019-03-17T16:24:13.365Z,98722.38
2019-03-17T16:26:39.721Z,98727.29
2019-03-17T16:29:06.076Z,98719.76
2019-03-17T16:31:32.422Z,98725.22
2019-03-17T16:33:59.250Z,98730.02
2019-03-17T16:36:25.690Z,98741.39
2019-03-17T16:38:52.223Z,98736.95
2019-03-17T16:41:19.135Z,98744.48
2019-03-17T16:43:46.642Z,98738.41
2019-03-17T16:46:13.003Z,98751.89
2019-03-17T16:48:39.526Z,98745.67
2019-03-17T16:51:05.861Z,98756.58
2019-03-17T16:53:32.625Z,98768.47
2019-03-17T16:55:59.093Z,98769.27
2019-03-17T16:58:25.483Z,98765.59
2019-03-17T17:00:52.229Z,98767.05
2019-03-17T17:03:19.194Z,98773.84
2019-03-17T17:05:45.820Z,98766.66
2019-03-17T17:08:12.331Z,98782.49
2019-03-17T17:10:39.184Z,98782.64
2019-03-17T17:13:05.895Z,98789.64
2019-03-17T17:15:33.985Z,98795.57
2019-03-17T17:18:01.264Z,98799.19
2019-03-17T17:20:37.750Z,98806.57
2019-03-17T17:23:04.980Z,98811.70
2019-03-17T17:25:31.921Z,98813.92
2019-03-17T17:27:58.699Z,98810.08
2019-03-17T17:30:25.511Z,98800.72
2019-03-17T17:32:52.453Z,98749.66
2019-03-17T17:35:19.189Z,98769.16
2019-03-17T17:37:45.572Z,98776.70
2019-03-17T17:40:17.502Z,98761.59
2019-03-17T17:42:45.007Z,98762.27
2019-03-17T17:45:15.601Z,98758.57
2019-03-17T17:47:42.314Z,98777.58
2019-03-17T17:50:12.815Z,98775.14
2019-03-17T17:52:39.512Z,98768.02
2019-03-17T17:55:07.467Z,98771.79
2019-03-17T17:57:33.798Z,98768.79
2019-03-17T18:00:00.364Z,98766.81
2019-03-17T18:02:26.826Z,98767.41
2019-03-17T18:04:53.587Z,98770.93
2019-03-17T18:07:19.967Z,98755.98
2019-03-17T18:09:46.670Z,98758.31
2019-03-17T18:12:20.940Z,98760.22
2019-03-17T18:14:41.600Z,98770.18
2019-03-17T18:17:07.940Z,98777.27
2019-03-17T18:19:34.618Z,98787.06
2019-03-17T18:22:01.321Z,98809.00
2019-03-17T18:24:27.634Z,98814.41
2019-03-17T18:26:54.009Z,98801.05
2019-03-17T18:29:20.701Z,98807.59
2019-03-17T18:31:47.057Z,98819.80
2019-03-17T18:34:13.391Z,98827.52
2019-03-17T18:36:39.880Z,98820.71
2019-03-17T18:39:06.232Z,98816.00
2019-03-17T18:41:32.562Z,98807.11
2019-03-17T18:43:58.954Z,98801.95
2019-03-17T18:46:25.310Z,98811.20
2019-03-17T18:48:52.678Z,98813.80
2019-03-17T18:51:19.144Z,98810.63
2019-03-17T18:53:45.885Z,98811.80
2019-03-17T18:56:12.237Z,98812.63
2019-03-17T18:58:38.937Z,98828.75
2019-03-17T19:01:05.285Z,98831.01
2019-03-17T19:03:32.816Z,98826.17
2019-03-17T19:05:59.201Z,98836.23
2019-03-17T19:08:25.928Z,98830.74
2019-03-17T19:10:52.260Z,98823.36
2019-03-17T19:13:18.851Z,98822.94
2019-03-17T19:15:45.512Z,98813.01
2019-03-17T19:18:12.154Z,98819.77
2019-03-17T19:20:38.786Z,98829.38
2019-03-17T19:23:05.140Z,98829.86
2019-03-17T19:25:31.928Z,98832.31
2019-03-17T19:27:58.672Z,98828.64
2019-03-17T19:30:28.101Z,98816.06
2019-03-17T19:32:54.834Z,98828.73
2019-03-17T19:35:21.505Z,98830.23
2019-03-17T19:37:48.445Z,98834.30
2019-03-17T19:40:17.259Z,98825.28
2019-03-17T19:42:43.566Z,98824.77
2019-03-17T19:45:11.517Z,98815.23
2019-03-17T19:47:38.144Z,98829.08
2019-03-17T19:50:09.127Z,98835.19
2019-03-17T19:52:35.543Z,98843.47
2019-03-17T19:55:03.735Z,98847.80
2019-03-17T19:57:30.209Z,98858.42
2019-03-17T19:59:56.580Z,98852.16
2019-03-17T20:02:23.010Z,98867.11
2019-03-17T20:04:49.419Z,98863.94
2019-03-17T20:07:15.863Z,98865.19
2019-03-17T20:09:42.425Z,98862.22
2019-03-17T20:12:08.791Z,98886.57
2019-03-17T20:14:35.584Z,98889.17
2019-03-17T20:17:02.363Z,98895.61
2019-03-17T20:19:29.091Z,98897.58
2019-03-17T20:21:55.492Z,98902.32
2019-03-17T20:24:22.239Z,98892.86
2019-03-17T20:26:48.591Z,98867.75
2019-03-17T20:29:14.908Z,98901.68
2019-03-17T20:31:41.656Z,98921.80
2019-03-17T20:34:08.022Z,98936.77
2019-03-17T20:36:34.357Z,98920.09
2019-03-17T20:39:00.669Z,98917.66
2019-03-17T20:41:28.719Z,98937.92
2019-03-17T20:43:56.315Z,98936.77
2019-03-17T20:46:24.025Z,98954.05
2019-03-17T20:48:50.430Z,98958.95
2019-03-17T20:51:16.775Z,98997.88
2019-03-17T20:53:43.148Z,98973.81
2019-03-17T20:56:09.876Z,98972.72
2019-03-17T20:58:36.258Z,98981.90
2019-03-17T21:01:03.075Z,98979.98
2019-03-17T21:03:29.477Z,98988.28
2019-03-17T21:05:56.104Z,98985.08
2019-03-17T21:08:22.412Z,99007.97
2019-03-17T21:10:49.973Z,99017.95
2019-03-17T21:13:16.697Z,99022.20
2019-03-17T21:15:43.129Z,99024.34
2019-03-17T21:18:09.822Z,99028.25
2019-03-17T21:20:36.477Z,99037.14
2019-03-17T21:23:03.295Z,99033.36
2019-03-17T21:25:29.936Z,99036.80
2019-03-17T21:27:56.577Z,99060.40
2019-03-17T21:30:29.207Z,99057.08
2019-03-17T21:32:55.637Z,99046.73
2019-03-17T21:35:22.573Z,99041.42
2019-03-17T21:37:49.273Z,99032.52
2019-03-17T21:40:15.612Z,99033.94
2019-03-17T21:42:42.341Z,99038.22
2019-03-17T21:45:11.060Z,99042.39
2019-03-17T21:47:42.467Z,99050.08
2019-03-17T21:50:18.104Z,99045.34
2019-03-17T21:52:44.764Z,99053.30
2019-03-17T21:55:12.752Z,99057.80
2019-03-17T21:57:39.121Z,99020.20
2019-03-17T22:00:17.165Z,99039.05
2019-03-17T22:02:43.867Z,99039.98
2019-03-17T22:05:14.098Z,99039.98
2019-03-17T22:07:49.281Z,99050.08
2019-03-17T22:10:14.165Z,99062.19
2019-03-17T22:12:40.477Z,99076.53
2019-03-17T22:15:13.698Z,99071.67
2019-03-17T22:17:40.348Z,99057.42
2019-03-17T22:20:10.414Z,99052.00
2019-03-17T22:22:37.117Z,99052.33
2019-03-17T22:25:07.151Z,99056.58
2019-03-17T22:27:33.582Z,99055.63
2019-03-17T22:30:00.344Z,99065.13
2019-03-17T22:32:26.744Z,99069.03
2019-03-17T22:34:53.575Z,99070.92
2019-03-17T22:37:20.212Z,99074.36
2019-03-17T22:39:46.533Z,99070.45
2019-03-17T22:42:13.179Z,99077.19
2019-03-17T22:44:39.514Z,99072.33
2019-03-17T22:47:06.084Z,99086.02
2019-03-17T22:49:32.415Z,99087.69
2019-03-17T22:51:58.747Z,99089.66
2019-03-17T22:54:25.084Z,99099.25
2019-03-17T22:56:51.420Z,99094.86
2019-03-17T22:59:17.750Z,99100.44
2019-03-17T23:01:44.093Z,99091.42
2019-03-17T23:04:10.490Z,99089.53
2019-03-17T23:06:37.209Z,99090.58
2019-03-17T23:09:05.958Z,99096.27
2019-03-17T23:11:32.749Z,99104.20
2019-03-17T23:13:59.113Z,99108.62
2019-03-17T23:16:25.495Z,99115.61
2019-03-17T23:18:51.863Z,99118.59
2019-03-17T23:21:18.461Z,99133.63
2019-03-17T23:23:45.106Z,99118.45
2019-03-17T23:26:11.546Z,99129.97
2019-03-17T23:28:38.180Z,99137.04
2019-03-17T23:31:04.808Z,99138.46
2019-03-17T23:33:32.746Z,99142.84
2019-03-17T23:35:59.419Z,99136.66
2019-03-17T23:38:25.791Z,99140.61
2019-03-17T23:40:52.131Z,99147.28
2019-03-17T23:43:18.520Z,99141.92
2019-03-17T23:45:45.161Z,99132.67
2019-03-17T23:48:11.797Z,99143.69
2019-03-17T23:50:38.114Z,99144.77
2019-03-17T23:53:05.389Z,99141.01
2019-03-17T23:55:31.711Z,99155.13
2019-03-17T23:57:58.345Z,99138.09
